sensor_id;sensor_type;location;lat;lon;timestamp;temperature;humidity
20714;DHT22;10518;50.742;4.226;2023-01-15T00:00:48;9.60;99.90
20714;DHT22;10518;50.742;4.226;2023-01-15T00:03:14;9.50;99.90
20714;DHT22;10518;50.742;4.226;2023-01-15T00:05:39;9.50;99.90
20714;DHT22;10518;50.742;4.226;2023-01-15T00:08:05;9.40;99.90
20714;DHT22;10518;50.742;4.226;2023-01-15T00:10:31;9.50;99.90
20714;DHT22;10518;50.742;4.226;2023-01-15T00:12:56;9.50;99.90
20714;DHT22;10518;50.742;4.226;2023-01-15T00:15:22;9.60;99.90
20714;DHT22;10518;50.742;4.226;2023-01-15T00:17:48;9.80;99.90
20714;DHT22;10518;50.742;4.226;2023-01-15T00:20:13;9.60;99.90
20714;DHT22;10518;50.742;4.226;2023-01-15T00:22:39;9.90;99.90
20714;DHT22;10518;50.742;4.226;2023-01-15T00:25:05;10.00;99.90
20714;DHT22;10518;50.742;4.226;2023-01-15T00:27:49;9.80;99.90
20714;DHT22;10518;50.742;4.226;2023-01-15T00:30:16;10.00;99.90
20714;DHT22;10518;50.742;4.226;2023-01-15T00:32:42;10.00;99.90
20714;DHT22;10518;50.742;4.226;2023-01-15T00:35:28;10.00;99.90
20714;DHT22;10518;50.742;4.226;2023-01-15T00:37:54;10.00;99.90
20714;DHT22;10518;50.742;4.226;2023-01-15T00:40:20;10.00;99.90
20714;DHT22;10518;50.742;4.226;2023-01-15T00:42:45;9.90;99.90
20714;DHT22;10518;50.742;4.226;2023-01-15T00:45:11;9.80;99.90
20714;DHT22;10518;50.742;4.226;2023-01-15T00:47:38;9.80;99.90
20714;DHT22;10518;50.742;4.226;2023-01-15T00:50:07;9.70;99.90
20714;DHT22;10518;50.742;4.226;2023-01-15T00:52:33;9.60;99.90
20714;DHT22;10518;50.742;4.226;2023-01-15T00:54:58;9.40;99.90
20714;DHT22;10518;50.742;4.226;2023-01-15T00:57:24;9.40;99.90
20714;DHT22;10518;50.742;4.226;2023-01-15T00:59:50;9.30;99.90
20714;DHT22;10518;50.742;4.226;2023-01-15T01:02:16;9.20;99.90
20714;DHT22;10518;50.742;4.226;2023-01-15T01:04:41;9.20;99.90
20714;DHT22;10518;50.742;4.226;2023-01-15T01:07:07;9.30;99.90
20714;DHT22;10518;50.742;4.226;2023-01-15T01:09:33;9.10;99.90
20714;DHT22;10518;50.742;4.226;2023-01-15T01:11:58;9.10;99.90
20714;DHT22;10518;50.742;4.226;2023-01-15T01:14:24;9.20;99.90
20714;DHT22;10518;50.742;4.226;2023-01-15T01:16:49;9.10;99.90
20714;DHT22;10518;50.742;4.226;2023-01-15T01:19:21;9.10;99.90
20714;DHT22;10518;50.742;4.226;2023-01-15T01:21:47;9.10;99.90
20714;DHT22;10518;50.742;4.226;2023-01-15T01:24:16;9.00;99.90
20714;DHT22;10518;50.742;4.226;2023-01-15T01:26:43;9.10;99.90
20714;DHT22;10518;50.742;4.226;2023-01-15T01:29:14;9.20;99.90
20714;DHT22;10518;50.742;4.226;2023-01-15T01:31:40;9.00;99.90
20714;DHT22;10518;50.742;4.226;2023-01-15T01:34:05;8.80;99.90
20714;DHT22;10518;50.742;4.226;2023-01-15T01:36:33;8.90;99.90
20714;DHT22;10518;50.742;4.226;2023-01-15T01:39:00;8.80;99.90
20714;DHT22;10518;50.742;4.226;2023-01-15T01:41:26;8.70;99.90
20714;DHT22;10518;50.742;4.226;2023-01-15T01:44:03;8.80;99.90
20714;DHT22;10518;50.742;4.226;2023-01-15T01:46:32;9.20;99.90
20714;DHT22;10518;50.742;4.226;2023-01-15T01:49:12;9.10;99.90
20714;DHT22;10518;50.742;4.226;2023-01-15T01:51:42;8.90;99.90
20714;DHT22;10518;50.742;4.226;2023-01-15T01:54:10;8.90;99.90
20714;DHT22;10518;50.742;4.226;2023-01-15T01:56:36;8.70;99.90
20714;DHT22;10518;50.742;4.226;2023-01-15T01:59:03;8.60;99.90
20714;DHT22;10518;50.742;4.226;2023-01-15T02:01:30;8.60;99.90
20714;DHT22;10518;50.742;4.226;2023-01-15T02:03:56;8.70;99.90
20714;DHT22;10518;50.742;4.226;2023-01-15T02:06:23;8.60;99.90
20714;DHT22;10518;50.742;4.226;2023-01-15T02:08:49;8.60;99.90
20714;DHT22;10518;50.742;4.226;2023-01-15T02:11:18;8.60;99.90
20714;DHT22;10518;50.742;4.226;2023-01-15T02:14:01;8.60;99.90
20714;DHT22;10518;50.742;4.226;2023-01-15T02:16:39;9.00;99.90
20714;DHT22;10518;50.742;4.226;2023-01-15T02:24:56;8.60;99.90
20714;DHT22;10518;50.742;4.226;2023-01-15T02:27:25;8.40;99.90
20714;DHT22;10518;50.742;4.226;2023-01-15T02:30:05;8.30;99.90
20714;DHT22;10518;50.742;4.226;2023-01-15T02:35:49;8.30;99.90
20714;DHT22;10518;50.742;4.226;2023-01-15T02:38:20;8.30;99.90
20714;DHT22;10518;50.742;4.226;2023-01-15T02:40:49;8.20;99.90
20714;DHT22;10518;50.742;4.226;2023-01-15T02:43:16;8.20;99.90
20714;DHT22;10518;50.742;4.226;2023-01-15T02:45:46;8.10;99.90
20714;DHT22;10518;50.742;4.226;2023-01-15T02:48:15;8.10;99.90
20714;DHT22;10518;50.742;4.226;2023-01-15T02:51:30;8.20;99.90
20714;DHT22;10518;50.742;4.226;2023-01-15T02:53:30;8.20;99.90
20714;DHT22;10518;50.742;4.226;2023-01-15T02:55:58;8.30;99.90
20714;DHT22;10518;50.742;4.226;2023-01-15T02:58:29;8.10;99.90
20714;DHT22;10518;50.742;4.226;2023-01-15T03:01:00;8.20;99.90
20714;DHT22;10518;50.742;4.226;2023-01-15T03:04:02;8.10;99.90
20714;DHT22;10518;50.742;4.226;2023-01-15T03:06:39;8.10;99.90
20714;DHT22;10518;50.742;4.226;2023-01-15T03:09:06;8.20;99.90
20714;DHT22;10518;50.742;4.226;2023-01-15T03:11:40;8.20;99.90
20714;DHT22;10518;50.742;4.226;2023-01-15T03:14:18;8.20;99.90
20714;DHT22;10518;50.742;4.226;2023-01-15T03:16:55;8.20;99.90
20714;DHT22;10518;50.742;4.226;2023-01-15T03:19:34;8.50;99.90
20714;DHT22;10518;50.742;4.226;2023-01-15T03:22:17;8.20;99.90
20714;DHT22;10518;50.742;4.226;2023-01-15T03:27:33;8.20;99.90
20714;DHT22;10518;50.742;4.226;2023-01-15T03:30:14;8.20;99.90
20714;DHT22;10518;50.742;4.226;2023-01-15T03:32:40;8.10;99.90
20714;DHT22;10518;50.742;4.226;2023-01-15T03:35:07;7.90;99.90
20714;DHT22;10518;50.742;4.226;2023-01-15T03:37:52;7.80;99.90
20714;DHT22;10518;50.742;4.226;2023-01-15T03:40:18;7.80;99.90
20714;DHT22;10518;50.742;4.226;2023-01-15T03:42:56;7.80;99.90
20714;DHT22;10518;50.742;4.226;2023-01-15T03:45:47;7.70;99.90
20714;DHT22;10518;50.742;4.226;2023-01-15T03:48:23;7.60;99.90
20714;DHT22;10518;50.742;4.226;2023-01-15T03:51:08;7.70;99.90
20714;DHT22;10518;50.742;4.226;2023-01-15T03:53:49;7.70;99.90
20714;DHT22;10518;50.742;4.226;2023-01-15T03:56:25;7.60;99.90
20714;DHT22;10518;50.742;4.226;2023-01-15T03:59:02;7.60;99.90
20714;DHT22;10518;50.742;4.226;2023-01-15T04:01:33;7.80;99.90
20714;DHT22;10518;50.742;4.226;2023-01-15T04:04:01;7.70;99.90
20714;DHT22;10518;50.742;4.226;2023-01-15T04:06:28;7.90;99.90
20714;DHT22;10518;50.742;4.226;2023-01-15T04:08:55;7.70;99.90
20714;DHT22;10518;50.742;4.226;2023-01-15T04:11:23;7.70;99.90
20714;DHT22;10518;50.742;4.226;2023-01-15T04:13:50;7.90;99.90
20714;DHT22;10518;50.742;4.226;2023-01-15T04:16:24;8.10;99.90
20714;DHT22;10518;50.742;4.226;2023-01-15T04:18:51;8.10;99.90
20714;DHT22;10518;50.742;4.226;2023-01-15T04:21:16;7.80;99.90
20714;DHT22;10518;50.742;4.226;2023-01-15T04:23:42;7.70;99.90
20714;DHT22;10518;50.742;4.226;2023-01-15T04:26:07;7.70;99.90
20714;DHT22;10518;50.742;4.226;2023-01-15T04:28:33;7.60;99.90
20714;DHT22;10518;50.742;4.226;2023-01-15T04:30:58;7.60;99.90
20714;DHT22;10518;50.742;4.226;2023-01-15T04:33:25;7.50;99.90
20714;DHT22;10518;50.742;4.226;2023-01-15T04:35:50;7.60;99.90
20714;DHT22;10518;50.742;4.226;2023-01-15T04:38:16;7.50;99.90
20714;DHT22;10518;50.742;4.226;2023-01-15T04:40:43;7.60;99.90
20714;DHT22;10518;50.742;4.226;2023-01-15T04:43:27;7.50;99.90
20714;DHT22;10518;50.742;4.226;2023-01-15T04:46:12;7.60;99.90
20714;DHT22;10518;50.742;4.226;2023-01-15T04:48:38;7.60;99.90
20714;DHT22;10518;50.742;4.226;2023-01-15T04:51:05;7.60;99.90
20714;DHT22;10518;50.742;4.226;2023-01-15T04:53:31;7.70;99.90
20714;DHT22;10518;50.742;4.226;2023-01-15T04:56:01;7.90;99.90
20714;DHT22;10518;50.742;4.226;2023-01-15T04:58:28;7.80;99.90
20714;DHT22;10518;50.742;4.226;2023-01-15T05:00:53;7.60;99.90
20714;DHT22;10518;50.742;4.226;2023-01-15T05:03:19;7.70;99.90
20714;DHT22;10518;50.742;4.226;2023-01-15T05:05:44;7.70;99.90
20714;DHT22;10518;50.742;4.226;2023-01-15T05:08:10;7.70;99.90
20714;DHT22;10518;50.742;4.226;2023-01-15T05:10:35;7.60;99.90
20714;DHT22;10518;50.742;4.226;2023-01-15T05:13:01;7.50;99.90
20714;DHT22;10518;50.742;4.226;2023-01-15T05:15:27;7.70;99.90
20714;DHT22;10518;50.742;4.226;2023-01-15T05:17:52;7.60;99.90
20714;DHT22;10518;50.742;4.226;2023-01-15T05:20:18;7.50;99.90
20714;DHT22;10518;50.742;4.226;2023-01-15T05:22:43;7.40;99.90
20714;DHT22;10518;50.742;4.226;2023-01-15T05:25:09;7.40;99.90
20714;DHT22;10518;50.742;4.226;2023-01-15T05:27:35;7.40;99.90
20714;DHT22;10518;50.742;4.226;2023-01-15T05:30:00;7.50;99.90
20714;DHT22;10518;50.742;4.226;2023-01-15T05:32:26;7.70;99.90
20714;DHT22;10518;50.742;4.226;2023-01-15T05:34:51;7.60;99.90
20714;DHT22;10518;50.742;4.226;2023-01-15T05:37:17;7.50;99.90
20714;DHT22;10518;50.742;4.226;2023-01-15T05:39:42;7.50;99.90
20714;DHT22;10518;50.742;4.226;2023-01-15T05:42:08;7.80;99.90
20714;DHT22;10518;50.742;4.226;2023-01-15T05:44:34;7.60;99.90
20714;DHT22;10518;50.742;4.226;2023-01-15T05:47:00;7.60;99.90
20714;DHT22;10518;50.742;4.226;2023-01-15T05:49:28;7.70;99.90
20714;DHT22;10518;50.742;4.226;2023-01-15T05:51:55;7.70;99.90
20714;DHT22;10518;50.742;4.226;2023-01-15T05:54:26;7.70;99.90
20714;DHT22;10518;50.742;4.226;2023-01-15T05:56:52;7.90;99.90
20714;DHT22;10518;50.742;4.226;2023-01-15T05:59:21;8.00;99.90
20714;DHT22;10518;50.742;4.226;2023-01-15T06:01:47;8.50;99.90
20714;DHT22;10518;50.742;4.226;2023-01-15T06:04:13;8.50;99.90
20714;DHT22;10518;50.742;4.226;2023-01-15T06:06:40;8.60;99.90
20714;DHT22;10518;50.742;4.226;2023-01-15T06:09:06;8.20;99.90
20714;DHT22;10518;50.742;4.226;2023-01-15T06:11:32;8.20;99.90
20714;DHT22;10518;50.742;4.226;2023-01-15T06:13:58;8.20;99.90
20714;DHT22;10518;50.742;4.226;2023-01-15T06:16:24;8.20;99.90
20714;DHT22;10518;50.742;4.226;2023-01-15T06:18:49;8.20;99.90
20714;DHT22;10518;50.742;4.226;2023-01-15T06:21:15;8.40;99.90
20714;DHT22;10518;50.742;4.226;2023-01-15T06:23:42;8.40;99.90
20714;DHT22;10518;50.742;4.226;2023-01-15T06:26:16;8.40;99.90
20714;DHT22;10518;50.742;4.226;2023-01-15T06:28:42;8.30;99.90
20714;DHT22;10518;50.742;4.226;2023-01-15T06:31:10;8.20;99.90
20714;DHT22;10518;50.742;4.226;2023-01-15T06:33:36;7.90;99.90
20714;DHT22;10518;50.742;4.226;2023-01-15T06:36:07;7.90;99.90
20714;DHT22;10518;50.742;4.226;2023-01-15T06:38:33;7.70;99.90
20714;DHT22;10518;50.742;4.226;2023-01-15T06:41:00;7.70;99.90
20714;DHT22;10518;50.742;4.226;2023-01-15T06:43:26;7.90;99.90
20714;DHT22;10518;50.742;4.226;2023-01-15T06:46:11;7.80;99.90
20714;DHT22;10518;50.742;4.226;2023-01-15T06:48:55;7.70;99.90
20714;DHT22;10518;50.742;4.226;2023-01-15T06:51:21;7.60;99.90
20714;DHT22;10518;50.742;4.226;2023-01-15T06:53:47;7.40;99.90
20714;DHT22;10518;50.742;4.226;2023-01-15T06:56:13;7.30;99.90
20714;DHT22;10518;50.742;4.226;2023-01-15T06:58:40;7.20;99.90
20714;DHT22;10518;50.742;4.226;2023-01-15T07:01:10;7.00;99.90
20714;DHT22;10518;50.742;4.226;2023-01-15T07:03:36;7.00;99.90
20714;DHT22;10518;50.742;4.226;2023-01-15T07:06:10;6.90;99.90
20714;DHT22;10518;50.742;4.226;2023-01-15T07:08:36;6.70;99.90
20714;DHT22;10518;50.742;4.226;2023-01-15T07:11:06;6.80;99.90
20714;DHT22;10518;50.742;4.226;2023-01-15T07:13:32;6.80;99.90
20714;DHT22;10518;50.742;4.226;2023-01-15T07:15:59;6.70;99.90
20714;DHT22;10518;50.742;4.226;2023-01-15T07:18:29;6.60;99.90
20714;DHT22;10518;50.742;4.226;2023-01-15T07:20:56;6.60;99.90
20714;DHT22;10518;50.742;4.226;2023-01-15T07:23:23;6.60;99.90
20714;DHT22;10518;50.742;4.226;2023-01-15T07:25:50;6.60;99.90
20714;DHT22;10518;50.742;4.226;2023-01-15T07:28:16;6.60;99.90
20714;DHT22;10518;50.742;4.226;2023-01-15T07:30:41;6.50;99.90
20714;DHT22;10518;50.742;4.226;2023-01-15T07:33:07;6.40;99.90
20714;DHT22;10518;50.742;4.226;2023-01-15T07:35:32;6.50;99.90
20714;DHT22;10518;50.742;4.226;2023-01-15T07:38:01;6.40;99.90
20714;DHT22;10518;50.742;4.226;2023-01-15T07:40:27;6.40;99.90
20714;DHT22;10518;50.742;4.226;2023-01-15T07:42:52;6.50;99.90
20714;DHT22;10518;50.742;4.226;2023-01-15T07:45:38;6.40;99.90
20714;DHT22;10518;50.742;4.226;2023-01-15T07:48:23;6.20;99.90
20714;DHT22;10518;50.742;4.226;2023-01-15T07:51:08;6.20;99.90
20714;DHT22;10518;50.742;4.226;2023-01-15T07:53:33;6.30;99.90
20714;DHT22;10518;50.742;4.226;2023-01-15T07:55:59;6.00;99.90
20714;DHT22;10518;50.742;4.226;2023-01-15T07:58:24;6.10;99.90
20714;DHT22;10518;50.742;4.226;2023-01-15T08:00:50;6.00;99.90
20714;DHT22;10518;50.742;4.226;2023-01-15T08:03:15;6.00;99.90
20714;DHT22;10518;50.742;4.226;2023-01-15T08:05:41;6.10;99.90
20714;DHT22;10518;50.742;4.226;2023-01-15T08:08:13;6.00;99.90
20714;DHT22;10518;50.742;4.226;2023-01-15T08:10:39;6.00;99.90
20714;DHT22;10518;50.742;4.226;2023-01-15T08:13:25;5.90;99.90
20714;DHT22;10518;50.742;4.226;2023-01-15T08:16:09;5.90;99.90
20714;DHT22;10518;50.742;4.226;2023-01-15T08:18:36;5.90;99.90
20714;DHT22;10518;50.742;4.226;2023-01-15T08:21:01;5.90;99.90
20714;DHT22;10518;50.742;4.226;2023-01-15T08:23:27;6.10;99.90
20714;DHT22;10518;50.742;4.226;2023-01-15T08:25:53;6.10;99.90
20714;DHT22;10518;50.742;4.226;2023-01-15T08:28:18;6.20;99.90
20714;DHT22;10518;50.742;4.226;2023-01-15T08:30:44;6.20;99.90
20714;DHT22;10518;50.742;4.226;2023-01-15T08:33:09;6.10;99.90
20714;DHT22;10518;50.742;4.226;2023-01-15T08:35:35;6.10;99.90
20714;DHT22;10518;50.742;4.226;2023-01-15T08:38:07;6.00;99.90
20714;DHT22;10518;50.742;4.226;2023-01-15T08:40:34;6.00;99.90
20714;DHT22;10518;50.742;4.226;2023-01-15T08:43:01;6.20;99.90
20714;DHT22;10518;50.742;4.226;2023-01-15T08:45:26;6.30;99.90
20714;DHT22;10518;50.742;4.226;2023-01-15T08:47:55;6.40;99.90
20714;DHT22;10518;50.742;4.226;2023-01-15T08:50:22;6.30;99.90
20714;DHT22;10518;50.742;4.226;2023-01-15T08:52:48;6.50;99.90
20714;DHT22;10518;50.742;4.226;2023-01-15T08:55:13;6.50;99.90
20714;DHT22;10518;50.742;4.226;2023-01-15T08:57:39;6.60;99.90
20714;DHT22;10518;50.742;4.226;2023-01-15T09:00:05;6.80;99.90
20714;DHT22;10518;50.742;4.226;2023-01-15T09:02:31;6.70;99.90
20714;DHT22;10518;50.742;4.226;2023-01-15T09:04:57;6.50;99.90
20714;DHT22;10518;50.742;4.226;2023-01-15T09:07:22;6.60;99.90
20714;DHT22;10518;50.742;4.226;2023-01-15T09:09:48;6.60;99.90
20714;DHT22;10518;50.742;4.226;2023-01-15T09:12:13;6.70;99.90
20714;DHT22;10518;50.742;4.226;2023-01-15T09:14:39;6.50;99.90
20714;DHT22;10518;50.742;4.226;2023-01-15T09:17:05;6.40;99.90
20714;DHT22;10518;50.742;4.226;2023-01-15T09:19:30;6.40;99.90
20714;DHT22;10518;50.742;4.226;2023-01-15T09:21:56;6.40;99.90
20714;DHT22;10518;50.742;4.226;2023-01-15T09:24:21;6.30;99.90
20714;DHT22;10518;50.742;4.226;2023-01-15T09:26:47;6.40;99.90
20714;DHT22;10518;50.742;4.226;2023-01-15T09:29:13;6.50;99.90
20714;DHT22;10518;50.742;4.226;2023-01-15T09:31:38;6.60;99.90
20714;DHT22;10518;50.742;4.226;2023-01-15T09:34:04;6.70;99.90
20714;DHT22;10518;50.742;4.226;2023-01-15T09:36:32;6.80;99.90
20714;DHT22;10518;50.742;4.226;2023-01-15T09:38:59;6.80;99.90
20714;DHT22;10518;50.742;4.226;2023-01-15T09:41:37;6.70;99.90
20714;DHT22;10518;50.742;4.226;2023-01-15T09:47:13;7.00;99.90
20714;DHT22;10518;50.742;4.226;2023-01-15T09:50:14;7.20;99.90
20714;DHT22;10518;50.742;4.226;2023-01-15T09:55:24;7.10;99.90
20714;DHT22;10518;50.742;4.226;2023-01-15T09:57:57;7.20;99.90
20714;DHT22;10518;50.742;4.226;2023-01-15T10:00:25;7.10;99.90
20714;DHT22;10518;50.742;4.226;2023-01-15T10:05:39;6.90;99.90
20714;DHT22;10518;50.742;4.226;2023-01-15T10:08:18;6.80;99.90
20714;DHT22;10518;50.742;4.226;2023-01-15T10:10:55;7.10;99.90
20714;DHT22;10518;50.742;4.226;2023-01-15T10:13:40;7.20;99.90
20714;DHT22;10518;50.742;4.226;2023-01-15T10:16:09;7.20;99.90
20714;DHT22;10518;50.742;4.226;2023-01-15T10:18:35;7.10;99.90
20714;DHT22;10518;50.742;4.226;2023-01-15T10:26:30;7.30;99.90
20714;DHT22;10518;50.742;4.226;2023-01-15T10:29:00;7.40;99.90
20714;DHT22;10518;50.742;4.226;2023-01-15T10:43:10;6.50;99.90
20714;DHT22;10518;50.742;4.226;2023-01-15T10:45:51;6.60;99.90
20714;DHT22;10518;50.742;4.226;2023-01-15T10:50:47;6.60;99.90
20714;DHT22;10518;50.742;4.226;2023-01-15T10:53:28;6.80;99.90
20714;DHT22;10518;50.742;4.226;2023-01-15T10:56:17;7.10;99.90
20714;DHT22;10518;50.742;4.226;2023-01-15T11:01:39;7.30;99.90
20714;DHT22;10518;50.742;4.226;2023-01-15T11:04:08;7.40;99.90
20714;DHT22;10518;50.742;4.226;2023-01-15T11:06:34;7.50;99.90
20714;DHT22;10518;50.742;4.226;2023-01-15T11:09:00;7.80;99.90
20714;DHT22;10518;50.742;4.226;2023-01-15T11:11:30;7.70;99.90
20714;DHT22;10518;50.742;4.226;2023-01-15T11:14:15;7.70;99.90
20714;DHT22;10518;50.742;4.226;2023-01-15T11:17:00;7.70;99.90
20714;DHT22;10518;50.742;4.226;2023-01-15T11:19:39;7.80;99.90
20714;DHT22;10518;50.742;4.226;2023-01-15T11:22:11;7.80;99.90
20714;DHT22;10518;50.742;4.226;2023-01-15T11:24:45;7.70;99.90
20714;DHT22;10518;50.742;4.226;2023-01-15T11:27:16;7.70;99.90
20714;DHT22;10518;50.742;4.226;2023-01-15T11:29:43;7.60;99.90
20714;DHT22;10518;50.742;4.226;2023-01-15T11:32:31;7.50;99.90
20714;DHT22;10518;50.742;4.226;2023-01-15T11:35:15;7.70;99.90
20714;DHT22;10518;50.742;4.226;2023-01-15T11:37:41;7.90;99.90
20714;DHT22;10518;50.742;4.226;2023-01-15T11:40:19;8.10;99.90
20714;DHT22;10518;50.742;4.226;2023-01-15T11:42:46;8.30;99.90
20714;DHT22;10518;50.742;4.226;2023-01-15T11:45:30;8.40;99.90
20714;DHT22;10518;50.742;4.226;2023-01-15T11:48:18;8.30;99.90
20714;DHT22;10518;50.742;4.226;2023-01-15T11:51:06;8.20;99.90
20714;DHT22;10518;50.742;4.226;2023-01-15T11:53:37;8.00;99.90
20714;DHT22;10518;50.742;4.226;2023-01-15T11:56:07;8.10;99.90
20714;DHT22;10518;50.742;4.226;2023-01-15T12:01:10;8.30;99.90
20714;DHT22;10518;50.742;4.226;2023-01-15T12:03:38;8.20;99.90
20714;DHT22;10518;50.742;4.226;2023-01-15T12:06:08;8.10;99.90
20714;DHT22;10518;50.742;4.226;2023-01-15T12:08:45;8.20;99.90
20714;DHT22;10518;50.742;4.226;2023-01-15T12:11:32;8.20;99.90
20714;DHT22;10518;50.742;4.226;2023-01-15T12:27:40;8.30;99.90
20714;DHT22;10518;50.742;4.226;2023-01-15T12:33:44;8.40;99.90
20714;DHT22;10518;50.742;4.226;2023-01-15T12:39:09;8.30;99.90
20714;DHT22;10518;50.742;4.226;2023-01-15T12:41:43;8.40;99.90
20714;DHT22;10518;50.742;4.226;2023-01-15T12:44:58;8.20;99.90
20714;DHT22;10518;50.742;4.226;2023-01-15T12:50:41;8.60;99.90
20714;DHT22;10518;50.742;4.226;2023-01-15T12:56:17;8.50;99.90
20714;DHT22;10518;50.742;4.226;2023-01-15T12:58:56;8.60;99.90
20714;DHT22;10518;50.742;4.226;2023-01-15T13:01:51;8.50;99.90
20714;DHT22;10518;50.742;4.226;2023-01-15T13:06:57;8.50;99.90
20714;DHT22;10518;50.742;4.226;2023-01-15T13:09:32;8.30;99.90
20714;DHT22;10518;50.742;4.226;2023-01-15T13:11:59;8.20;99.90
20714;DHT22;10518;50.742;4.226;2023-01-15T13:14:25;8.10;99.90
20714;DHT22;10518;50.742;4.226;2023-01-15T13:20:11;8.10;99.90
20714;DHT22;10518;50.742;4.226;2023-01-15T13:22:40;8.20;99.90
20714;DHT22;10518;50.742;4.226;2023-01-15T13:31:41;8.20;99.90
20714;DHT22;10518;50.742;4.226;2023-01-15T13:37:01;8.20;99.90
20714;DHT22;10518;50.742;4.226;2023-01-15T13:39:38;8.20;99.90
20714;DHT22;10518;50.742;4.226;2023-01-15T13:42:05;8.20;99.90
20714;DHT22;10518;50.742;4.226;2023-01-15T13:44:51;8.20;99.90
20714;DHT22;10518;50.742;4.226;2023-01-15T13:47:20;8.00;99.90
20714;DHT22;10518;50.742;4.226;2023-01-15T13:49:54;8.10;99.90
20714;DHT22;10518;50.742;4.226;2023-01-15T13:52:35;8.10;99.90
20714;DHT22;10518;50.742;4.226;2023-01-15T13:55:11;8.10;99.90
20714;DHT22;10518;50.742;4.226;2023-01-15T13:57:43;7.90;99.90
20714;DHT22;10518;50.742;4.226;2023-01-15T14:00:31;7.90;99.90
20714;DHT22;10518;50.742;4.226;2023-01-15T14:02:59;7.90;99.90
20714;DHT22;10518;50.742;4.226;2023-01-15T14:05:29;7.80;99.90
20714;DHT22;10518;50.742;4.226;2023-01-15T14:07:57;7.70;99.90
20714;DHT22;10518;50.742;4.226;2023-01-15T14:13:08;7.90;99.90
20714;DHT22;10518;50.742;4.226;2023-01-15T14:16:26;7.80;99.90
20714;DHT22;10518;50.742;4.226;2023-01-15T14:19:48;7.70;99.90
20714;DHT22;10518;50.742;4.226;2023-01-15T14:25:38;7.90;99.90
20714;DHT22;10518;50.742;4.226;2023-01-15T14:33:36;7.80;99.90
20714;DHT22;10518;50.742;4.226;2023-01-15T14:36:17;8.10;99.90
20714;DHT22;10518;50.742;4.226;2023-01-15T14:38:49;8.10;99.90
20714;DHT22;10518;50.742;4.226;2023-01-15T14:41:31;7.90;99.90
20714;DHT22;10518;50.742;4.226;2023-01-15T14:44:28;7.80;99.90
20714;DHT22;10518;50.742;4.226;2023-01-15T14:47:00;8.00;99.90
20714;DHT22;10518;50.742;4.226;2023-01-15T14:49:28;8.00;99.90
20714;DHT22;10518;50.742;4.226;2023-01-15T14:51:54;7.90;99.90
20714;DHT22;10518;50.742;4.226;2023-01-15T14:54:21;8.10;99.90
20714;DHT22;10518;50.742;4.226;2023-01-15T14:56:55;8.00;99.90
20714;DHT22;10518;50.742;4.226;2023-01-15T14:59:28;8.00;99.90
20714;DHT22;10518;50.742;4.226;2023-01-15T15:02:21;8.00;99.90
20714;DHT22;10518;50.742;4.226;2023-01-15T15:04:51;8.10;99.90
20714;DHT22;10518;50.742;4.226;2023-01-15T15:07:20;7.80;99.90
20714;DHT22;10518;50.742;4.226;2023-01-15T15:09:56;7.80;99.90
20714;DHT22;10518;50.742;4.226;2023-01-15T15:15:30;7.90;99.90
20714;DHT22;10518;50.742;4.226;2023-01-15T15:18:30;7.90;99.90
20714;DHT22;10518;50.742;4.226;2023-01-15T15:21:07;8.00;99.90
20714;DHT22;10518;50.742;4.226;2023-01-15T15:26:42;7.70;99.90
20714;DHT22;10518;50.742;4.226;2023-01-15T15:31:35;7.70;99.90
20714;DHT22;10518;50.742;4.226;2023-01-15T15:34:02;7.70;99.90
20714;DHT22;10518;50.742;4.226;2023-01-15T15:36:30;7.50;99.90
20714;DHT22;10518;50.742;4.226;2023-01-15T15:39:02;7.70;99.90
20714;DHT22;10518;50.742;4.226;2023-01-15T15:41:31;7.50;99.90
20714;DHT22;10518;50.742;4.226;2023-01-15T15:47:24;7.60;99.90
20714;DHT22;10518;50.742;4.226;2023-01-15T15:50:29;7.40;99.90
20714;DHT22;10518;50.742;4.226;2023-01-15T15:52:56;7.30;99.90
20714;DHT22;10518;50.742;4.226;2023-01-15T15:55:24;7.30;99.90
20714;DHT22;10518;50.742;4.226;2023-01-15T15:57:55;7.60;99.90
20714;DHT22;10518;50.742;4.226;2023-01-15T16:00:29;7.50;99.90
20714;DHT22;10518;50.742;4.226;2023-01-15T16:02:56;7.50;99.90
20714;DHT22;10518;50.742;4.226;2023-01-15T16:05:25;7.50;99.90
20714;DHT22;10518;50.742;4.226;2023-01-15T16:07:52;7.80;99.90
20714;DHT22;10518;50.742;4.226;2023-01-15T16:10:31;7.60;99.90
20714;DHT22;10518;50.742;4.226;2023-01-15T16:13:00;7.70;99.90
20714;DHT22;10518;50.742;4.226;2023-01-15T16:15:30;7.50;99.90
20714;DHT22;10518;50.742;4.226;2023-01-15T16:17:57;7.50;99.90
20714;DHT22;10518;50.742;4.226;2023-01-15T16:20:24;7.70;99.90
20714;DHT22;10518;50.742;4.226;2023-01-15T16:22:57;7.60;99.90
20714;DHT22;10518;50.742;4.226;2023-01-15T16:27:50;7.60;99.90
20714;DHT22;10518;50.742;4.226;2023-01-15T16:30:16;7.60;99.90
20714;DHT22;10518;50.742;4.226;2023-01-15T16:32:43;7.60;99.90
20714;DHT22;10518;50.742;4.226;2023-01-15T16:35:18;7.60;99.90
20714;DHT22;10518;50.742;4.226;2023-01-15T16:37:50;7.80;99.90
20714;DHT22;10518;50.742;4.226;2023-01-15T16:40:34;7.70;99.90
20714;DHT22;10518;50.742;4.226;2023-01-15T16:43:12;7.80;99.90
20714;DHT22;10518;50.742;4.226;2023-01-15T16:46:06;7.70;99.90
20714;DHT22;10518;50.742;4.226;2023-01-15T16:48:39;7.90;99.90
20714;DHT22;10518;50.742;4.226;2023-01-15T16:51:34;8.20;99.90
20714;DHT22;10518;50.742;4.226;2023-01-15T16:54:04;7.70;99.90
20714;DHT22;10518;50.742;4.226;2023-01-15T16:59:03;8.10;99.90
20714;DHT22;10518;50.742;4.226;2023-01-15T17:01:48;8.10;99.90
20714;DHT22;10518;50.742;4.226;2023-01-15T17:04:35;8.10;99.90
20714;DHT22;10518;50.742;4.226;2023-01-15T17:07:01;7.80;99.90
20714;DHT22;10518;50.742;4.226;2023-01-15T17:09:30;7.80;99.90
20714;DHT22;10518;50.742;4.226;2023-01-15T17:11:57;7.80;99.90
20714;DHT22;10518;50.742;4.226;2023-01-15T17:14:25;8.20;99.90
20714;DHT22;10518;50.742;4.226;2023-01-15T17:17:14;8.10;99.90
20714;DHT22;10518;50.742;4.226;2023-01-15T17:19:40;8.00;99.90
20714;DHT22;10518;50.742;4.226;2023-01-15T17:22:28;7.90;99.90
20714;DHT22;10518;50.742;4.226;2023-01-15T17:24:57;7.70;99.90
20714;DHT22;10518;50.742;4.226;2023-01-15T17:27:24;7.40;99.90
20714;DHT22;10518;50.742;4.226;2023-01-15T17:29:50;7.50;99.90
20714;DHT22;10518;50.742;4.226;2023-01-15T17:32:32;7.60;99.90
20714;DHT22;10518;50.742;4.226;2023-01-15T17:35:00;7.90;99.90
20714;DHT22;10518;50.742;4.226;2023-01-15T17:37:26;8.00;99.90
20714;DHT22;10518;50.742;4.226;2023-01-15T17:39:51;7.90;99.90
20714;DHT22;10518;50.742;4.226;2023-01-15T17:42:18;8.10;99.90
20714;DHT22;10518;50.742;4.226;2023-01-15T17:44:44;8.10;99.90
20714;DHT22;10518;50.742;4.226;2023-01-15T17:47:10;7.90;99.90
20714;DHT22;10518;50.742;4.226;2023-01-15T17:49:36;7.90;99.90
20714;DHT22;10518;50.742;4.226;2023-01-15T17:52:05;7.90;99.90
20714;DHT22;10518;50.742;4.226;2023-01-15T17:54:31;8.00;99.90
20714;DHT22;10518;50.742;4.226;2023-01-15T17:57:15;8.20;99.90
20714;DHT22;10518;50.742;4.226;2023-01-15T17:59:59;8.10;99.90
20714;DHT22;10518;50.742;4.226;2023-01-15T18:02:44;8.10;99.90
20714;DHT22;10518;50.742;4.226;2023-01-15T18:05:29;7.80;99.90